createdAt,value
2024-04-23T00:01:27.805Z,8.81
2024-04-23T00:07:02.769Z,8.72
2024-04-23T00:12:46.977Z,8.79
2024-04-23T00:18:12.819Z,8.74
2024-04-23T00:23:49.046Z,8.84
2024-04-23T00:29:13.034Z,8.87
2024-04-23T00:34:37.128Z,8.77
2024-04-23T00:40:01.188Z,8.79
2024-04-23T00:45:36.327Z,8.78
2024-04-23T00:50:59.574Z,8.66
2024-04-23T00:56:23.207Z,8.73
2024-04-23T01:01:47.929Z,8.65
2024-04-23T01:07:10.929Z,8.56
2024-04-23T01:12:37.198Z,8.35
2024-04-23T01:18:04.690Z,8.03
2024-04-23T01:23:37.994Z,7.98
2024-04-23T01:29:02.192Z,7.72
2024-04-23T01:34:26.628Z,7.66
2024-04-23T01:39:51.164Z,7.47
2024-04-23T01:45:17.795Z,7.33
2024-04-23T01:50:42.097Z,7.10
2024-04-23T01:56:07.149Z,6.93
2024-04-23T02:01:33.067Z,6.70
2024-04-23T02:07:09.912Z,6.65
2024-04-23T02:12:33.674Z,6.49
2024-04-23T02:17:58.075Z,6.45
2024-04-23T02:23:24.766Z,6.16
2024-04-23T02:28:47.963Z,6.08
2024-04-23T02:34:12.252Z,6.08
2024-04-23T02:39:36.479Z,5.85
2024-04-23T02:45:11.521Z,5.83
2024-04-23T02:50:37.299Z,6.13
2024-04-23T02:56:03.974Z,6.38
2024-04-23T03:01:40.162Z,6.62
2024-04-23T03:07:14.971Z,6.77
2024-04-23T03:12:39.436Z,6.46
2024-04-23T03:18:05.866Z,6.46
2024-04-23T03:23:32.147Z,6.53
2024-04-23T03:28:58.998Z,6.78
2024-04-23T03:34:26.669Z,6.94
2024-04-23T03:39:54.499Z,7.21
2024-04-23T03:45:21.217Z,7.35
2024-04-23T03:50:49.904Z,7.92
2024-04-23T03:56:16.776Z,8.34
2024-04-23T04:01:42.685Z,7.81
2024-04-23T04:07:18.091Z,7.35
2024-04-23T04:12:44.686Z,7.60
2024-04-23T04:18:11.158Z,7.84
2024-04-23T04:23:51.971Z,8.07
2024-04-23T04:29:19.048Z,8.10
2024-04-23T04:34:46.658Z,8.08
2024-04-23T04:40:12.382Z,8.21
2024-04-23T04:45:36.501Z,8.06
2024-04-23T04:51:05.504Z,8.55
2024-04-23T04:56:30.096Z,8.32
2024-04-23T05:01:57.494Z,8.68
2024-04-23T05:07:21.017Z,8.43
2024-04-23T05:12:43.662Z,9.28
2024-04-23T05:18:06.238Z,8.80
2024-04-23T05:23:29.070Z,9.55
2024-04-23T05:28:52.031Z,9.28
2024-04-23T05:34:17.435Z,9.65
2024-04-23T05:39:43.726Z,10.29
2024-04-23T05:45:10.379Z,10.38
2024-04-23T05:51:12.186Z,10.23
2024-04-23T05:56:56.394Z,10.93
2024-04-23T06:02:20.312Z,10.42
2024-04-23T06:07:47.526Z,11.29
2024-04-23T06:13:12.587Z,11.30
2024-04-23T06:18:44.388Z,12.21
2024-04-23T06:24:11.653Z,11.98
2024-04-23T06:29:36.335Z,11.83
2024-04-23T06:35:24.581Z,13.08
2024-04-23T06:41:03.355Z,13.15
2024-04-23T06:46:29.198Z,12.15
2024-04-23T06:52:14.504Z,12.48
2024-04-23T06:57:40.002Z,12.52
2024-04-23T07:03:18.493Z,12.61
2024-04-23T07:08:43.869Z,14.39
2024-04-23T07:14:11.690Z,14.26
2024-04-23T07:19:40.383Z,12.13
2024-04-23T07:25:24.001Z,14.11
2024-04-23T07:30:55.343Z,12.56
2024-04-23T07:36:23.555Z,11.28
2024-04-23T07:41:46.842Z,12.67
2024-04-23T07:47:10.804Z,14.00
2024-04-23T07:52:40.089Z,14.76
2024-04-23T07:58:20.276Z,14.94
2024-04-23T08:03:47.331Z,13.31
2024-04-23T08:09:14.775Z,13.77
2024-04-23T08:14:41.600Z,12.95
2024-04-23T08:20:23.438Z,13.93
2024-04-23T08:25:51.627Z,14.34
2024-04-23T08:31:18.945Z,13.55
2024-04-23T08:37:01.077Z,12.77
2024-04-23T08:42:28.433Z,12.77
2024-04-23T08:47:54.805Z,12.15
2024-04-23T08:53:29.843Z,13.08
2024-04-23T08:59:00.222Z,12.85
2024-04-23T09:04:44.611Z,14.46
2024-04-23T09:10:11.183Z,13.93
2024-04-23T09:15:36.333Z,15.00
2024-04-23T09:21:08.177Z,14.57
2024-04-23T09:26:35.762Z,14.15
2024-04-23T09:32:23.459Z,13.91
2024-04-23T09:38:06.523Z,14.68
2024-04-23T09:43:36.139Z,14.62
2024-04-23T09:49:08.845Z,14.01
2024-04-23T09:54:32.674Z,14.39
2024-04-23T09:59:58.711Z,13.88
2024-04-23T10:05:30.088Z,14.08
2024-04-23T10:10:58.283Z,14.55
2024-04-23T10:17:08.671Z,14.92
2024-04-23T10:22:36.108Z,14.55
2024-04-23T10:28:04.906Z,14.70
2024-04-23T10:33:44.235Z,14.38
2024-04-23T10:39:24.322Z,14.22
2024-04-23T10:44:48.672Z,14.82
2024-04-23T10:50:14.139Z,14.56
2024-04-23T10:55:39.566Z,14.91
2024-04-23T11:01:04.823Z,14.86
2024-04-23T11:06:45.075Z,15.05
2024-04-23T11:12:28.353Z,14.92
2024-04-23T11:17:52.616Z,14.71
2024-04-23T11:23:23.687Z,15.26
2024-04-23T11:28:47.195Z,15.27
2024-04-23T11:34:12.136Z,14.94
2024-04-23T11:39:37.344Z,14.82
2024-04-23T11:45:05.034Z,14.99
2024-04-23T11:50:31.748Z,15.11
2024-04-23T11:55:55.348Z,14.04
2024-04-23T12:01:18.651Z,14.24
2024-04-23T12:06:57.366Z,14.21
2024-04-23T12:12:41.198Z,14.83
2024-04-23T12:18:06.123Z,14.10
2024-04-23T12:23:41.953Z,14.84
2024-04-23T12:29:05.877Z,14.25
2024-04-23T12:34:29.929Z,13.89
2024-04-23T12:39:57.437Z,14.50
2024-04-23T12:45:27.822Z,14.72
2024-04-23T12:50:53.963Z,14.81
2024-04-23T12:56:51.189Z,14.69
2024-04-23T13:02:18.706Z,14.74
2024-04-23T13:07:46.347Z,14.85
2024-04-23T13:13:11.757Z,14.93
2024-04-23T13:18:37.052Z,14.85
2024-04-23T13:24:04.508Z,14.72
2024-04-23T13:29:32.392Z,14.68
2024-04-23T13:34:55.782Z,14.71
2024-04-23T13:40:44.268Z,14.74
2024-04-23T13:46:19.676Z,14.62
2024-04-23T13:51:42.974Z,14.95
2024-04-23T13:57:18.558Z,14.73
2024-04-23T14:02:55.169Z,14.61
2024-04-23T14:08:18.183Z,14.83
2024-04-23T14:13:43.644Z,14.72
2024-04-23T14:19:07.916Z,14.39
2024-04-23T14:24:44.786Z,14.38
2024-04-23T14:30:09.850Z,14.45
2024-04-23T14:35:38.024Z,14.47
2024-04-23T14:41:06.861Z,14.22
2024-04-23T14:46:36.440Z,14.24
2024-04-23T14:52:11.711Z,14.31
2024-04-23T14:57:35.949Z,14.23
2024-04-23T15:02:58.907Z,14.07
2024-04-23T15:08:22.117Z,14.02
2024-04-23T15:13:44.786Z,13.84
2024-04-23T15:19:21.669Z,13.71
2024-04-23T15:24:57.206Z,13.51
2024-04-23T15:30:21.768Z,13.22
2024-04-23T15:35:48.525Z,12.96
2024-04-23T15:41:15.677Z,12.81
2024-04-23T15:46:43.237Z,12.82
2024-04-23T15:52:07.486Z,12.30
2024-04-23T15:57:30.287Z,12.09
2024-04-23T16:02:53.370Z,12.14
2024-04-23T16:08:19.299Z,12.00
2024-04-23T16:13:59.770Z,11.77
2024-04-23T16:19:26.686Z,11.60
2024-04-23T16:24:51.586Z,11.38
2024-04-23T16:30:27.179Z,11.31
2024-04-23T16:35:56.030Z,11.15
2024-04-23T16:41:23.684Z,10.98
2024-04-23T16:46:50.824Z,10.73
2024-04-23T16:52:14.535Z,10.73
2024-04-23T16:57:41.966Z,10.94
2024-04-23T17:03:08.340Z,10.64
2024-04-23T17:08:33.738Z,10.37
2024-04-23T17:14:00.723Z,10.51
2024-04-23T17:19:24.275Z,10.44
2024-04-23T17:24:47.671Z,10.11
2024-04-23T17:30:11.398Z,9.94
2024-04-23T17:35:35.390Z,9.74
2024-04-23T17:40:58.911Z,9.68
2024-04-23T17:46:22.974Z,9.52
2024-04-23T17:51:46.517Z,9.38
2024-04-23T17:57:22.207Z,9.24
2024-04-23T18:02:47.088Z,9.14
2024-04-23T18:08:13.390Z,9.27
2024-04-23T18:13:41.205Z,9.35
2024-04-23T18:19:06.607Z,9.38
2024-04-23T18:24:30.274Z,9.14
2024-04-23T18:29:59.799Z,9.15
2024-04-23T18:35:26.695Z,9.06
2024-04-23T18:40:49.974Z,9.18
2024-04-23T18:46:15.684Z,9.06
2024-04-23T18:51:39.822Z,9.06
2024-04-23T18:57:04.547Z,9.03
2024-04-23T19:02:27.483Z,9.01
2024-04-23T19:08:13.071Z,9.16
2024-04-23T19:13:36.602Z,9.03
2024-04-23T19:19:00.356Z,8.89
2024-04-23T19:24:26.983Z,9.03
2024-04-23T19:29:50.384Z,8.92
2024-04-23T19:35:13.616Z,8.72
2024-04-23T19:40:36.607Z,8.96
2024-04-23T19:46:06.916Z,8.95
2024-04-23T19:51:31.396Z,8.79
2024-04-23T19:56:59.029Z,8.50
2024-04-23T20:02:37.155Z,8.42
2024-04-23T20:08:02.267Z,8.14
2024-04-23T20:13:27.749Z,8.00
2024-04-23T20:18:54.025Z,7.90
2024-04-23T20:24:17.312Z,7.78
2024-04-23T20:29:40.202Z,7.66
2024-04-23T20:35:04.446Z,7.43
2024-04-23T20:40:40.991Z,7.49
2024-04-23T20:46:08.806Z,7.32
2024-04-23T20:51:31.686Z,7.24
2024-04-23T20:56:54.703Z,7.09
2024-04-23T21:02:17.451Z,6.83
2024-04-23T21:07:40.798Z,6.72
2024-04-23T21:13:29.723Z,6.67
2024-04-23T21:18:55.709Z,6.59
2024-04-23T21:24:18.730Z,6.41
2024-04-23T21:29:45.679Z,6.43
2024-04-23T21:35:09.233Z,6.36
2024-04-23T21:40:44.257Z,6.30
2024-04-23T21:46:08.801Z,6.17
2024-04-23T21:51:35.590Z,6.08
2024-04-23T21:56:59.797Z,6.10
2024-04-23T22:02:23.516Z,5.95
2024-04-23T22:13:21.960Z,5.68
2024-04-23T22:18:45.337Z,5.55
2024-04-23T22:24:09.130Z,5.20
2024-04-23T22:29:32.301Z,5.34
2024-04-23T22:34:54.903Z,4.89
2024-04-23T22:40:17.707Z,5.07
2024-04-23T22:45:40.636Z,4.97
2024-04-23T22:51:03.447Z,4.83
2024-04-23T22:56:26.744Z,4.29
2024-04-23T23:01:49.674Z,4.51
2024-04-23T23:07:12.394Z,4.35
2024-04-23T23:12:35.386Z,4.31
2024-04-23T23:17:58.487Z,4.13
2024-04-23T23:23:33.704Z,4.14
2024-04-23T23:28:56.441Z,4.04
2024-04-23T23:34:19.174Z,3.88
2024-04-23T23:39:42.812Z,3.98
2024-04-23T23:45:05.488Z,3.99
2024-04-23T23:50:39.918Z,4.05
2024-04-23T23:56:03.554Z,3.94
